PIMOHWEATHER Station Historical Data
 
Daily Summary for January 27, 2023 Units:  Metric    English   Both
Daily Weekly Monthly Yearly
  Current: High: Low: Average:
Temperature: 28.4 °C 29.0 °C 24.0 °C 25.5 °C
Dew Point: 22.1 °C 22.2 °C 20.2 °C 20.9 °C
Humidity: 69% 81% 67% 76%
Wind Speed: 14km/h 27km/h 4km/h 14.5km/h
Wind Gust: 28km/h 36km/h - -
WindNNE - - East
Pressure: 1007.8 hPa 1009.8 hPa 1007.1 hPa -
Precipitation: 0.00 mm      
 
 
Tabular Data for January 27, 2023
Time Temperature Dew Point Pressure Wind Wind Speed Wind Gust Humidity Rainfall Rate (Hourly) solar
00:04 25.6 °C 20.8 °C 1009.5 hPa NNE 5 km/h 8 km/h 75% 0.00 mm 0.00 W/m2
00:09 25.6 °C 20.8 °C 1009.1 hPa NNE 11 km/h 16 km/h 75% 0.00 mm 0.00 W/m2
00:14 25.6 °C 20.8 °C 1009.1 hPa NNE 8 km/h 16 km/h 75% 0.00 mm 0.00 W/m2
00:19 25.6 °C 21.1 °C 1009.1 hPa North 9 km/h 12 km/h 76% 0.00 mm 0.00 W/m2
00:24 25.6 °C 21.1 °C 1009.1 hPa NNE 6 km/h 12 km/h 76% 0.00 mm 0.00 W/m2
00:29 25.6 °C 21.1 °C 1009.1 hPa NNE 9 km/h 16 km/h 76% 0.00 mm 0.00 W/m2
00:34 25.6 °C 21.1 °C 1009.1 hPa North 10 km/h 12 km/h 76% 0.00 mm 0.00 W/m2
00:39 25.6 °C 21.1 °C 1009.1 hPa NNE 12 km/h 16 km/h 76% 0.00 mm 0.00 W/m2
00:44 25.6 °C 20.8 °C 1009.1 hPa NNE 4 km/h 12 km/h 75% 0.00 mm 0.00 W/m2
00:49 25.7 °C 20.9 °C 1009.1 hPa NNE 6 km/h 12 km/h 75% 0.00 mm 0.00 W/m2
00:54 25.7 °C 20.9 °C 1009.1 hPa NNE 4 km/h 8 km/h 75% 0.00 mm 0.00 W/m2
00:59 25.6 °C 20.8 °C 1009.1 hPa NE 8 km/h 12 km/h 75% 0.00 mm 0.00 W/m2
01:04 25.6 °C 20.8 °C 1009.1 hPa NNE 4 km/h 8 km/h 75% 0.00 mm 0.00 W/m2
01:09 25.6 °C 20.8 °C 1009.1 hPa NNE 6 km/h 16 km/h 75% 0.00 mm 0.00 W/m2
01:14 25.6 °C 20.8 °C 1008.8 hPa North 10 km/h 12 km/h 75% 0.00 mm 0.00 W/m2
01:19 25.6 °C 20.8 °C 1008.8 hPa North 19 km/h 24 km/h 75% 0.00 mm 0.00 W/m2
01:24 25.5 °C 20.7 °C 1008.5 hPa North 9 km/h 16 km/h 75% 0.00 mm 0.00 W/m2
01:29 25.5 °C 20.9 °C 1008.8 hPa NNW 15 km/h 20 km/h 76% 0.00 mm 0.00 W/m2
01:34 25.4 °C 20.9 °C 1008.5 hPa North 17 km/h 24 km/h 76% 0.00 mm 0.00 W/m2
01:39 25.3 °C 20.8 °C 1008.5 hPa North 15 km/h 20 km/h 76% 0.00 mm 0.00 W/m2
01:44 25.3 °C 20.8 °C 1008.5 hPa NNE 10 km/h 12 km/h 76% 0.00 mm 0.00 W/m2
01:49 25.3 °C 20.8 °C 1008.5 hPa North 13 km/h 16 km/h 76% 0.00 mm 0.00 W/m2
01:54 25.2 °C 20.7 °C 1008.5 hPa North 8 km/h 12 km/h 76% 0.00 mm 0.00 W/m2
01:59 25.2 °C 20.7 °C 1008.5 hPa NNE 8 km/h 8 km/h 76% 0.00 mm 0.00 W/m2
02:04 25.3 °C 20.8 °C 1008.1 hPa NNE 5 km/h 8 km/h 76% 0.00 mm 0.00 W/m2
02:09 25.2 °C 20.7 °C 1008.1 hPa North 6 km/h 12 km/h 76% 0.00 mm 0.00 W/m2
02:14 25.2 °C 20.7 °C 1008.5 hPa North 12 km/h 16 km/h 76% 0.00 mm 0.00 W/m2
02:19 25.1 °C 20.8 °C 1008.1 hPa North 15 km/h 20 km/h 77% 0.00 mm 0.00 W/m2
02:24 25.1 °C 20.8 °C 1007.8 hPa NNE 14 km/h 20 km/h 77% 0.00 mm 0.00 W/m2
02:29 24.9 °C 20.6 °C 1007.8 hPa North 12 km/h 16 km/h 77% 0.00 mm 0.00 W/m2
02:34 24.9 °C 20.7 °C 1007.8 hPa North 14 km/h 16 km/h 78% 0.00 mm 0.00 W/m2
02:39 24.8 °C 20.7 °C 1007.8 hPa North 9 km/h 16 km/h 78% 0.00 mm 0.00 W/m2
02:44 24.7 °C 20.6 °C 1007.8 hPa North 10 km/h 20 km/h 78% 0.00 mm 0.00 W/m2
02:49 24.6 °C 20.5 °C 1007.8 hPa North 11 km/h 20 km/h 78% 0.00 mm 0.00 W/m2
02:54 24.5 °C 20.6 °C 1007.8 hPa North 13 km/h 16 km/h 79% 0.00 mm 0.00 W/m2
02:59 24.5 °C 20.6 °C 1007.5 hPa North 15 km/h 16 km/h 79% 0.00 mm 0.00 W/m2
03:04 24.5 °C 20.6 °C 1007.5 hPa North 15 km/h 20 km/h 79% 0.00 mm 0.00 W/m2
03:09 24.5 °C 20.6 °C 1007.5 hPa North 11 km/h 20 km/h 79% 0.00 mm 0.00 W/m2
03:14 24.5 °C 20.6 °C 1007.5 hPa North 13 km/h 24 km/h 79% 0.00 mm 0.00 W/m2
03:19 24.4 °C 20.5 °C 1007.8 hPa NNE 12 km/h 16 km/h 79% 0.00 mm 0.00 W/m2
03:24 24.5 °C 20.6 °C 1007.8 hPa North 13 km/h 20 km/h 79% 0.00 mm 0.00 W/m2
03:29 24.5 °C 20.6 °C 1007.8 hPa North 17 km/h 24 km/h 79% 0.00 mm 0.00 W/m2
03:34 24.4 °C 20.5 °C 1007.8 hPa North 14 km/h 24 km/h 79% 0.00 mm 0.00 W/m2
03:39 24.4 °C 20.5 °C 1007.8 hPa North 13 km/h 24 km/h 79% 0.00 mm 0.00 W/m2
03:44 24.3 °C 20.4 °C 1007.8 hPa North 17 km/h 28 km/h 79% 0.00 mm 0.00 W/m2
03:49 24.3 °C 20.4 °C 1007.5 hPa NNE 13 km/h 20 km/h 79% 0.00 mm 0.00 W/m2
03:54 24.3 °C 20.4 °C 1007.5 hPa NNE 17 km/h 24 km/h 79% 0.00 mm 0.00 W/m2
03:59 24.3 °C 20.4 °C 1007.5 hPa North 17 km/h 24 km/h 79% 0.00 mm 0.00 W/m2
04:04 24.3 °C 20.4 °C 1007.5 hPa North 18 km/h 28 km/h 79% 0.00 mm 0.00 W/m2
04:09 24.3 °C 20.4 °C 1007.5 hPa North 10 km/h 32 km/h 79% 0.00 mm 0.00 W/m2
04:14 24.2 °C 20.3 °C 1007.5 hPa North 20 km/h 32 km/h 79% 0.00 mm 0.00 W/m2
04:19 24.2 °C 20.3 °C 1007.5 hPa North 19 km/h 28 km/h 79% 0.00 mm 0.00 W/m2
04:24 24.2 °C 20.5 °C 1007.5 hPa NNE 21 km/h 24 km/h 80% 0.00 mm 0.00 W/m2
04:29 24.2 °C 20.5 °C 1007.1 hPa NNE 13 km/h 16 km/h 80% 0.00 mm 0.00 W/m2
04:34 24.2 °C 20.5 °C 1007.1 hPa North 20 km/h 24 km/h 80% 0.00 mm 0.00 W/m2
04:39 24.1 °C 20.4 °C 1007.5 hPa North 13 km/h 24 km/h 80% 0.00 mm 0.00 W/m2
04:44 24.0 °C 20.5 °C 1007.5 hPa North 16 km/h 24 km/h 81% 0.00 mm 0.00 W/m2
04:49 24.0 °C 20.5 °C 1007.1 hPa North 19 km/h 24 km/h 81% 0.00 mm 0.00 W/m2
04:54 24.0 °C 20.5 °C 1007.5 hPa NNE 13 km/h 24 km/h 81% 0.00 mm 0.00 W/m2
04:59 24.0 °C 20.5 °C 1007.5 hPa North 14 km/h 24 km/h 81% 0.00 mm 0.00 W/m2
05:04 24.1 °C 20.4 °C 1007.5 hPa NNE 17 km/h 24 km/h 80% 0.00 mm 0.00 W/m2
05:09 24.1 °C 20.4 °C 1007.5 hPa North 13 km/h 20 km/h 80% 0.00 mm 0.00 W/m2
05:14 24.2 °C 20.5 °C 1007.1 hPa North 13 km/h 20 km/h 80% 0.00 mm 0.00 W/m2
05:19 24.1 °C 20.4 °C 1007.1 hPa NNE 13 km/h 16 km/h 80% 0.00 mm 0.00 W/m2
05:24 24.2 °C 20.5 °C 1007.5 hPa North 20 km/h 20 km/h 80% 0.00 mm 0.00 W/m2
05:29 24.2 °C 20.5 °C 1007.5 hPa North 8 km/h 24 km/h 80% 0.00 mm 0.00 W/m2
05:34 24.2 °C 20.5 °C 1007.5 hPa NNE 17 km/h 24 km/h 80% 0.00 mm 0.00 W/m2
05:39 24.1 °C 20.4 °C 1007.5 hPa NNE 12 km/h 16 km/h 80% 0.00 mm 0.00 W/m2
05:44 24.1 °C 20.4 °C 1007.8 hPa North 9 km/h 20 km/h 80% 0.00 mm 0.00 W/m2
05:49 24.1 °C 20.4 °C 1007.5 hPa North 19 km/h 28 km/h 80% 0.00 mm 0.00 W/m2
05:54 24.1 °C 20.4 °C 1007.5 hPa North 11 km/h 16 km/h 80% 0.00 mm 0.00 W/m2
05:59 24.1 °C 20.4 °C 1007.8 hPa North 6 km/h 16 km/h 80% 0.00 mm 0.00 W/m2
06:04 24.1 °C 20.4 °C 1007.8 hPa North 15 km/h 28 km/h 80% 0.00 mm 0.00 W/m2
06:09 24.1 °C 20.4 °C 1007.8 hPa North 15 km/h 20 km/h 80% 0.00 mm 0.00 W/m2
06:14 24.1 °C 20.4 °C 1007.8 hPa NNE 15 km/h 20 km/h 80% 0.00 mm 0.00 W/m2
06:19 24.2 °C 20.4 °C 1007.5 hPa NNE 12 km/h 20 km/h 80% 0.00 mm 0.00 W/m2
06:24 24.2 °C 20.3 °C 1007.8 hPa North 10 km/h 20 km/h 79% 0.00 mm 0.00 W/m2
06:29 24.2 °C 20.3 °C 1007.8 hPa North 14 km/h 20 km/h 79% 0.00 mm 3.00 W/m2
06:34 24.2 °C 20.3 °C 1008.1 hPa North 18 km/h 24 km/h 79% 0.00 mm 7.00 W/m2
06:39 24.2 °C 20.3 °C 1008.1 hPa North 13 km/h 20 km/h 79% 0.00 mm 14.00 W/m2
06:44 24.2 °C 20.3 °C 1008.1 hPa North 20 km/h 24 km/h 79% 0.00 mm 18.00 W/m2
06:49 24.2 °C 20.3 °C 1008.1 hPa North 18 km/h 24 km/h 79% 0.00 mm 23.00 W/m2
06:54 24.2 °C 20.3 °C 1008.5 hPa North 13 km/h 24 km/h 79% 0.00 mm 27.00 W/m2
06:59 24.3 °C 20.3 °C 1008.5 hPa NNE 13 km/h 20 km/h 79% 0.00 mm 34.00 W/m2
07:04 24.3 °C 20.2 °C 1008.5 hPa North 13 km/h 20 km/h 78% 0.00 mm 41.00 W/m2
07:09 24.4 °C 20.3 °C 1008.5 hPa North 26 km/h 32 km/h 78% 0.00 mm 48.00 W/m2
07:14 24.4 °C 20.3 °C 1008.5 hPa North 17 km/h 28 km/h 78% 0.00 mm 58.00 W/m2
07:19 24.5 °C 20.4 °C 1008.5 hPa North 22 km/h 28 km/h 78% 0.00 mm 67.00 W/m2
07:24 24.5 °C 20.4 °C 1008.8 hPa North 22 km/h 28 km/h 78% 0.00 mm 76.00 W/m2
07:29 24.6 °C 20.4 °C 1008.8 hPa North 21 km/h 28 km/h 78% 0.00 mm 82.00 W/m2
07:34 24.6 °C 20.5 °C 1008.8 hPa North 24 km/h 28 km/h 78% 0.00 mm 82.00 W/m2
07:39 24.8 °C 20.5 °C 1009.1 hPa North 19 km/h 24 km/h 77% 0.00 mm 77.00 W/m2
07:44 24.9 °C 20.6 °C 1009.1 hPa NNE 17 km/h 24 km/h 77% 0.00 mm 75.00 W/m2
07:49 24.9 °C 20.6 °C 1009.1 hPa North 13 km/h 20 km/h 77% 0.00 mm 75.00 W/m2
07:54 25.0 °C 20.6 °C 1009.1 hPa North 15 km/h 16 km/h 77% 0.00 mm 81.00 W/m2
07:59 25.1 °C 20.6 °C 1009.1 hPa North 17 km/h 28 km/h 76% 0.00 mm 86.00 W/m2
08:04 25.3 °C 20.8 °C 1009.5 hPa NNE 10 km/h 20 km/h 76% 0.00 mm 92.00 W/m2
08:09 25.4 °C 20.8 °C 1009.1 hPa North 10 km/h 16 km/h 76% 0.00 mm 99.00 W/m2
08:14 25.7 °C 20.9 °C 1009.5 hPa NNE 12 km/h 20 km/h 75% 0.00 mm 100.00 W/m2
08:19 25.7 °C 20.9 °C 1009.1 hPa North 12 km/h 20 km/h 75% 0.00 mm 102.00 W/m2
08:24 25.8 °C 20.9 °C 1009.5 hPa North 13 km/h 20 km/h 75% 0.00 mm 97.00 W/m2
08:29 25.9 °C 20.9 °C 1009.5 hPa NNE 11 km/h 20 km/h 74% 0.00 mm 107.00 W/m2
08:34 25.9 °C 21.1 °C 1009.5 hPa NNW 21 km/h 24 km/h 75% 0.00 mm 107.00 W/m2
08:39 25.7 °C 20.9 °C 1009.8 hPa NNW 17 km/h 24 km/h 75% 0.00 mm 110.00 W/m2
08:44 25.7 °C 20.9 °C 1009.8 hPa North 14 km/h 20 km/h 75% 0.00 mm 122.00 W/m2
08:49 25.8 °C 21.0 °C 1009.8 hPa NNW 17 km/h 24 km/h 75% 0.00 mm 125.00 W/m2
08:54 25.9 °C 21.1 °C 1009.8 hPa North 17 km/h 24 km/h 75% 0.00 mm 129.00 W/m2
08:59 25.9 °C 21.1 °C 1009.8 hPa North 14 km/h 24 km/h 75% 0.00 mm 130.00 W/m2
09:04 26.1 °C 21.2 °C 1009.5 hPa North 11 km/h 16 km/h 75% 0.00 mm 161.00 W/m2
09:09 26.2 °C 21.2 °C 1009.8 hPa NNW 13 km/h 20 km/h 74% 0.00 mm 200.00 W/m2
09:14 26.4 °C 21.3 °C 1009.8 hPa North 15 km/h 24 km/h 74% 0.00 mm 288.00 W/m2
09:19 26.5 °C 21.4 °C 1009.8 hPa North 20 km/h 28 km/h 74% 0.00 mm 497.00 W/m2
09:24 26.9 °C 21.5 °C 1009.8 hPa NNW 18 km/h 24 km/h 73% 0.00 mm 609.00 W/m2
09:29 27.2 °C 21.5 °C 1009.8 hPa NNW 17 km/h 24 km/h 72% 0.00 mm 654.00 W/m2
09:34 27.3 °C 21.6 °C 1009.8 hPa NNW 22 km/h 28 km/h 71% 0.00 mm 482.00 W/m2
09:39 27.9 °C 21.7 °C 1009.8 hPa North 17 km/h 20 km/h 71% 0.00 mm 352.00 W/m2
09:44 27.9 °C 21.9 °C 1009.5 hPa NNW 26 km/h 32 km/h 71% 0.00 mm 292.00 W/m2
09:49 27.7 °C 21.5 °C 1009.5 hPa NNE 14 km/h 24 km/h 70% 0.00 mm 338.00 W/m2
09:54 28.0 °C 21.8 °C 1009.5 hPa North 19 km/h 24 km/h 69% 0.00 mm 371.00 W/m2
09:59 27.9 °C 21.7 °C 1009.5 hPa North 17 km/h 24 km/h 69% 0.00 mm 288.00 W/m2
10:04 27.8 °C 21.6 °C 1009.5 hPa NNW 18 km/h 28 km/h 69% 0.00 mm 296.00 W/m2
10:09 27.8 °C 21.6 °C 1009.5 hPa North 11 km/h 24 km/h 69% 0.00 mm 275.00 W/m2
10:14 28.1 °C 21.7 °C 1009.1 hPa North 14 km/h 20 km/h 69% 0.00 mm 274.00 W/m2
10:19 28.1 °C 21.9 °C 1009.1 hPa North 21 km/h 28 km/h 69% 0.00 mm 211.00 W/m2
10:24 28.0 °C 21.7 °C 1009.1 hPa North 12 km/h 16 km/h 69% 0.00 mm 149.00 W/m2
10:29 28.0 °C 21.8 °C 1009.1 hPa NNE 13 km/h 16 km/h 69% 0.00 mm 101.00 W/m2
10:34 28.0 °C 21.8 °C 1009.1 hPa North 15 km/h 24 km/h 69% 0.00 mm 91.00 W/m2
10:39 27.7 °C 21.7 °C 1009.1 hPa NNE 15 km/h 24 km/h 70% 0.00 mm 79.00 W/m2
10:44 27.7 °C 21.7 °C 1009.1 hPa North 17 km/h 20 km/h 70% 0.00 mm 88.00 W/m2
10:49 27.7 °C 21.7 °C 1008.8 hPa North 13 km/h 20 km/h 70% 0.00 mm 88.00 W/m2
10:54 27.8 °C 21.8 °C 1009.1 hPa North 16 km/h 24 km/h 70% 0.00 mm 111.00 W/m2
10:59 27.7 °C 21.7 °C 1008.8 hPa North 24 km/h 32 km/h 70% 0.00 mm 111.00 W/m2
11:04 27.8 °C 21.8 °C 1008.5 hPa North 14 km/h 32 km/h 70% 0.00 mm 97.00 W/m2
11:09 28.0 °C 21.8 °C 1008.5 hPa North 13 km/h 20 km/h 70% 0.00 mm 94.00 W/m2
11:14 28.1 °C 21.9 °C 1008.5 hPa North 23 km/h 32 km/h 69% 0.00 mm 138.00 W/m2
11:19 28.2 °C 22.0 °C 1008.5 hPa NNE 15 km/h 28 km/h 69% 0.00 mm 232.00 W/m2
11:24 28.3 °C 22.0 °C 1008.5 hPa North 19 km/h 32 km/h 69% 0.00 mm 374.00 W/m2
11:29 28.9 °C 22.2 °C 1008.5 hPa North 19 km/h 28 km/h 68% 0.00 mm 507.00 W/m2
11:34 29.0 °C 22.2 °C 1008.1 hPa North 27 km/h 36 km/h 67% 0.00 mm 464.00 W/m2
11:39 29.0 °C 22.2 °C 1008.1 hPa NNE 20 km/h 28 km/h 67% 0.00 mm 354.00 W/m2
11:44 29.0 °C 22.2 °C 1008.1 hPa North 26 km/h 32 km/h 67% 0.00 mm 272.00 W/m2
11:49 28.8 °C 22.2 °C 1007.8 hPa NE 25 km/h 32 km/h 68% 0.00 mm 187.00 W/m2
11:54 28.4 °C 22.1 °C 1007.8 hPa NNE 14 km/h 28 km/h 69% 0.00 mm 186.00 W/m2
PIMOHWEATHER Philippines
Compliments of Weather Underground - 2 mb